Weather History for Chester, SC

Change the Weather History Date:

Friday, January 18, 2013

  Actual Average (KUZA) Record (KUZA)
Temperature  
Mean Temperature 42 °F -  
Max Temperature 51 °F 51 °F 74 °F (1974)
Min Temperature 32 °F 31 °F 14 °F (1976)
Degree Days  
Heating Degree Days 24    
Moisture  
Dew Point 30 °F    
Average Humidity 73    
Maximum Humidity 100    
Minimum Humidity 35    
Precipitation  
Precipitation 0.00 in - - ()
Sea Level Pressure  
Sea Level Pressure 30.42 in    
Wind  
Wind Speed 6 mph (North)    
Max Wind Speed 15 mph    
Max Gust Speed 18 mph    
Visibility 9 miles    
Events      
Averages and records for this station are not official NWS values.
T = Trace of Precipitation, MM = Missing Value Source: NWS Daily Summary

Daily Weather History Graph

Daily Weather History Graph

Search for Another Location

Airport:

Trip Planner

Search our weather history database for the weather conditions in past years. The results will help you decide how hot, cold, wet, or windy it might be!

Date:

Astronomy

Jan. 18, 2013 Rise Set
Actual Time 7:30 AM EST 5:40 PM EST
Civil Twilight 7:03 AM EST 6:07 PM EST
Nautical Twilight 6:32 AM EST 6:38 PM EST
Astronomical Twilight 6:02 AM EST 7:08 PM EST
Moon 11:28 AM EST (1/18) 12:10 AM EST (1/18)
Length of Visible Light 11h 03m
Length of Day
10h 09m
Waxing Crescent, 47% of the Moon is Illuminated
Jan 18
Waxing Crescent
Jan 18
First Quarter
Jan 26
Full
Feb 3
Last Quarter
Feb 10
New

Hourly Weather History & Observations

Time (EST) Temp. Windchill Dew Point Humidity Pressure Visibility Wind Dir Wind Speed Gust Speed Precip Events Conditions
12:15 AM 35.6 °F 28.0 °F 35.6 °F 100% 30.19 in 10.0 mi North 10.4 mph - N/A   Clear
12:35 AM 35.6 °F 30.7 °F 35.6 °F 100% 30.21 in 10.0 mi North 5.8 mph - N/A   Clear
12:55 AM 35.6 °F 29.9 °F 35.6 °F 100% 30.22 in 10.0 mi North 6.9 mph - N/A   Clear
1:35 AM 35.6 °F 29.9 °F 35.6 °F 100% 30.25 in 10.0 mi NW 6.9 mph - N/A   Clear
1:55 AM 35.6 °F 31.7 °F 35.6 °F 100% 30.26 in 10.0 mi NW 4.6 mph - N/A   Clear
2:15 AM 35.6 °F 31.7 °F 35.6 °F 100% 30.27 in 10.0 mi NW 4.6 mph - N/A   Clear
2:35 AM 33.8 °F 29.6 °F 33.8 °F 100% 30.28 in 10.0 mi WNW 4.6 mph - N/A   Clear
2:55 AM 33.8 °F 29.6 °F 33.8 °F 100% 30.29 in 10.0 mi WNW 4.6 mph - N/A   Clear
3:15 AM 33.8 °F 29.6 °F 33.8 °F 100% 30.29 in 10.0 mi NW 4.6 mph - N/A   Clear
3:35 AM 33.8 °F 30.8 °F 33.8 °F 100% 30.30 in 10.0 mi WNW 3.5 mph - N/A   Clear
3:55 AM 33.8 °F 29.6 °F 33.8 °F 100% 30.30 in 10.0 mi NW 4.6 mph - N/A   Clear
4:15 AM 33.8 °F 28.6 °F 33.8 °F 100% 30.30 in 10.0 mi NW 5.8 mph - N/A   Clear
4:35 AM 33.8 °F 28.6 °F 33.8 °F 100% 30.30 in 10.0 mi NW 5.8 mph - N/A   Clear
4:55 AM 33.8 °F 29.6 °F 33.8 °F 100% 30.30 in 10.0 mi NNW 4.6 mph - N/A   Clear
5:15 AM 32.0 °F 28.7 °F 32.0 °F 100% 30.31 in 10.0 mi North 3.5 mph - N/A   Clear
5:35 AM 32.0 °F 28.7 °F 32.0 °F 100% 30.31 in 10.0 mi North 3.5 mph - N/A   Clear
5:55 AM 32.0 °F - 32.0 °F 100% 30.32 in 10.0 mi Calm Calm - N/A   Clear
6:15 AM 32.0 °F 28.7 °F 32.0 °F 100% 30.33 in 10.0 mi NW 3.5 mph - N/A   Clear
6:35 AM 32.0 °F 28.7 °F 32.0 °F 100% 30.34 in 7.0 mi WSW 3.5 mph - N/A   Clear
7:15 AM 32.0 °F 26.4 °F 32.0 °F 100% 30.36 in 10.0 mi NW 5.8 mph - N/A   Clear
8:15 AM 32.0 °F 27.5 °F 32.0 °F 100% 30.41 in 10.0 mi North 4.6 mph - N/A   Clear
8:35 AM 33.8 °F 29.6 °F 33.8 °F 100% 30.42 in 10.0 mi North 4.6 mph - N/A   Clear
8:55 AM 35.6 °F 32.8 °F 33.8 °F 93% 30.44 in 10.0 mi NNE 3.5 mph - N/A   Clear
9:15 AM 37.4 °F - 32.0 °F 81% 30.46 in 10.0 mi Calm Calm - N/A   Clear
9:35 AM 37.4 °F 32.8 °F 32.0 °F 81% 30.47 in 10.0 mi North 5.8 mph - N/A   Clear
9:55 AM 41.0 °F 37.1 °F 32.0 °F 70% 30.49 in 10.0 mi North 5.8 mph - N/A   Clear
10:15 AM 42.8 °F 38.6 °F 33.8 °F 70% 30.50 in 10.0 mi North 6.9 mph - N/A   Clear
10:55 AM 44.6 °F 38.8 °F 32.0 °F 61% 30.50 in 10.0 mi NE 11.5 mph - N/A   Clear
11:15 AM 44.6 °F 38.1 °F 32.0 °F 61% 30.50 in 7.0 mi NNE 13.8 mph - N/A   Clear
11:35 AM 46.4 °F 41.9 °F 32.0 °F 57% 30.49 in 7.0 mi NNE 9.2 mph - N/A   Clear
11:55 AM 46.4 °F 41.9 °F 32.0 °F 57% 30.49 in 7.0 mi North 9.2 mph - N/A   Clear
12:35 PM 48.2 °F - 28.4 °F 46% 30.48 in 7.0 mi North 15.0 mph 18.4 mph N/A   Clear
12:55 PM 50.0 °F - 28.4 °F 43% 30.47 in 7.0 mi NNE 12.7 mph - N/A   Clear
1:15 PM 50.0 °F - 26.6 °F 40% 30.47 in 7.0 mi NNE 10.4 mph - N/A   Clear
1:35 PM 50.0 °F - 28.4 °F 43% 30.47 in 7.0 mi North 3.5 mph - N/A   Clear
1:55 PM 50.0 °F - 28.4 °F 43% 30.46 in 7.0 mi NNE 5.8 mph - N/A   Clear
2:15 PM 50.0 °F - 28.4 °F 43% 30.46 in 7.0 mi NNE 3.5 mph - N/A   Clear
2:35 PM 51.8 °F - 26.6 °F 38% 30.46 in 7.0 mi ENE 8.1 mph - N/A   Clear
2:55 PM 51.8 °F - 26.6 °F 38% 30.46 in 7.0 mi NE 9.2 mph - N/A   Clear
3:15 PM 51.8 °F - 24.8 °F 35% 30.47 in 7.0 mi NE 8.1 mph - N/A   Clear
3:35 PM 51.8 °F - 24.8 °F 35% 30.47 in 7.0 mi NNE 8.1 mph - N/A   Clear
3:55 PM 50.0 °F - 23.0 °F 35% 30.47 in 7.0 mi ENE 3.5 mph - N/A   Clear
4:15 PM 50.0 °F - 23.0 °F 35% 30.47 in 7.0 mi NNE 8.1 mph - N/A   Clear
4:55 PM 48.2 °F - 26.6 °F 43% 30.47 in 7.0 mi NNE 6.9 mph - N/A   Clear
5:15 PM 46.4 °F 44.3 °F 24.8 °F 43% 30.48 in 7.0 mi NNE 4.6 mph - N/A   Clear
5:35 PM 44.6 °F 43.1 °F 26.6 °F 49% 30.48 in 7.0 mi NNE 3.5 mph - N/A   Clear
5:55 PM 42.8 °F 40.1 °F 26.6 °F 53% 30.48 in 10.0 mi North 4.6 mph - N/A   Clear
6:15 PM 42.8 °F 40.1 °F 26.6 °F 53% 30.49 in 10.0 mi North 4.6 mph - N/A   Clear
6:35 PM 41.0 °F 39.0 °F 26.6 °F 57% 30.50 in 7.0 mi North 3.5 mph - N/A   Clear
6:55 PM 39.2 °F - 28.4 °F 65% 30.51 in 10.0 mi Calm Calm - N/A   Clear
7:15 PM 37.4 °F 34.9 °F 28.4 °F 70% 30.51 in 10.0 mi East 3.5 mph - N/A   Clear
7:35 PM 37.4 °F - 28.4 °F 70% 30.51 in 7.0 mi Calm Calm - N/A   Clear
7:55 PM 37.4 °F - 28.4 °F 70% 30.51 in 7.0 mi Calm Calm - N/A   Clear
8:15 PM 37.4 °F 34.9 °F 28.4 °F 70% 30.51 in 10.0 mi East 3.5 mph - N/A   Clear
8:35 PM 37.4 °F 34.9 °F 28.4 °F 70% 30.51 in 7.0 mi East 3.5 mph - N/A   Clear
8:55 PM 37.4 °F 32.8 °F 28.4 °F 70% 30.51 in 10.0 mi East 5.8 mph - N/A   Clear
9:15 PM 37.4 °F 32.8 °F 28.4 °F 70% 30.51 in 10.0 mi East 5.8 mph - N/A   Clear
9:35 PM 37.4 °F 33.8 °F 26.6 °F 65% 30.51 in 7.0 mi East 4.6 mph - N/A   Clear
9:55 PM 35.6 °F 32.8 °F 26.6 °F 70% 30.51 in 10.0 mi East 3.5 mph - N/A   Clear
10:15 PM 35.6 °F - 26.6 °F 70% 30.50 in 7.0 mi Calm Calm - N/A   Clear
10:35 PM 33.8 °F 30.8 °F 26.6 °F 75% 30.50 in 7.0 mi ESE 3.5 mph - N/A   Clear
10:55 PM 33.8 °F - 26.6 °F 75% 30.50 in 10.0 mi Calm Calm - N/A   Clear
11:15 PM 33.8 °F - 26.6 °F 75% 30.50 in 10.0 mi Calm Calm - N/A   Clear
11:35 PM 33.8 °F - 26.6 °F 75% 30.49 in 10.0 mi Calm Calm - N/A   Clear
11:55 PM 32.0 °F - 26.6 °F 80% 30.49 in 10.0 mi Calm Calm - N/A   Clear